Time;durP1;ratioP1;P1;durP2;ratioP2;P2;SDS_P1;SDS_P2;PMS_P1;PMS_P2;Temp;Humidity;BMP_temperature;BMP_pressure;BME280_temperature;BME280_humidity;BME280_pressure;Samples;Min_cycle;Max_cycle;Signal;HPM_P1;HPM_P2
2022/06/20 00:01:45;;;;;;;;;7.50;7.00;;;;;;;;5061386;28;51089;-57
2022/06/20 00:04:30;;;;;;;;;10.00;9.00;;;;;;;;5061766;28;51088;-57
2022/06/20 00:07:16;;;;;;;;;19.75;9.50;;;;;;;;5061307;28;51155;-57
2022/06/20 00:10:15;;;;;;;;;10.75;8.25;;;;;;;;5061778;28;51187;-57
2022/06/20 00:13:01;;;;;;;;;9.25;9.00;;;;;;;;5046490;28;51379;-57
2022/06/20 00:15:48;;;;;;;;;12.00;9.75;;;;;;;;5061051;28;50979;-58
2022/06/20 00:18:46;;;;;;;;;9.50;8.25;;;;;;;;5047463;28;51013;-57
2022/06/20 00:21:30;;;;;;;;;12.00;10.00;;;;;;;;5061431;28;51237;-58
2022/06/20 00:24:21;;;;;;;;;12.75;8.00;;;;;;;;5061181;28;51138;-58
2022/06/20 00:27:06;;;;;;;;;13.00;8.25;;;;;;;;5060847;28;51150;-58
2022/06/20 00:30:13;;;;;;;;;8.50;3.50;;;;;;;;5061559;28;51064;-58
2022/06/20 00:33:07;;;;;;;;;13.25;9.50;;;;;;;;5061381;28;51490;-57
2022/06/20 00:35:53;;;;;;;;;13.50;10.75;;;;;;;;5061262;28;51139;-58
2022/06/20 00:38:37;;;;;;;;;10.50;9.25;;;;;;;;5060825;28;51143;-57
2022/06/20 00:41:25;;;;;;;;;10.00;8.75;;;;;;;;5060827;28;51220;-58
2022/06/20 00:44:13;;;;;;;;;10.25;7.00;;;;;;;;5061565;28;50419;-58
2022/06/20 00:47:03;;;;;;;;;10.00;8.25;;;;;;;;5060768;28;51541;-57
2022/06/20 00:50:04;;;;;;;;;10.75;7.75;;;;;;;;5061987;28;51336;-58
2022/06/20 00:52:48;;;;;;;;;12.50;9.75;;;;;;;;5045813;28;51086;-58
2022/06/20 00:55:57;;;;;;;;;14.25;10.00;;;;;;;;5061251;28;51069;-57
2022/06/20 00:59:04;;;;;;;;;12.50;11.00;;;;;;;;5060709;28;50971;-57
2022/06/20 01:02:12;;;;;;;;;12.50;11.00;;;;;;;;5061396;28;51214;-57
2022/06/20 01:05:00;;;;;;;;;13.25;8.75;;;;;;;;5061255;28;51512;-57
2022/06/20 01:08:18;;;;;;;;;13.75;12.25;;;;;;;;5045545;28;51127;-57
2022/06/20 01:11:06;;;;;;;;;11.75;9.50;;;;;;;;5027157;28;51087;-57
2022/06/20 01:13:51;;;;;;;;;11.25;9.00;;;;;;;;5060582;27;51090;-57
2022/06/20 01:16:44;;;;;;;;;14.00;8.25;;;;;;;;5053645;28;51089;-57
2022/06/20 01:19:38;;;;;;;;;11.25;8.50;;;;;;;;5059234;28;51155;-57
2022/06/20 01:22:41;;;;;;;;;9.50;3.00;;;;;;;;5059715;28;51115;-57
2022/06/20 01:26:04;;;;;;;;;8.75;4.75;;;;;;;;5049774;28;51525;-57
2022/06/20 01:28:57;;;;;;;;;10.25;8.75;;;;;;;;5058629;28;51137;-57
2022/06/20 01:31:59;;;;;;;;;12.00;9.25;;;;;;;;5051678;28;51427;-58
2022/06/20 01:34:43;;;;;;;;;13.25;10.75;;;;;;;;5050443;28;51166;-57
2022/06/20 01:37:35;;;;;;;;;16.75;10.00;;;;;;;;5060309;28;51139;-57
2022/06/20 01:40:19;;;;;;;;;9.50;8.00;;;;;;;;5060970;27;51041;-57
2022/06/20 01:43:11;;;;;;;;;9.50;9.50;;;;;;;;5064511;27;51069;-57
2022/06/20 01:46:00;;;;;;;;;15.25;10.50;;;;;;;;5055254;28;51059;-58
2022/06/20 01:48:51;;;;;;;;;11.25;10.50;;;;;;;;5059683;28;51127;-58
2022/06/20 01:51:42;;;;;;;;;11.75;11.00;;;;;;;;5059545;28;51115;-57
2022/06/20 01:54:29;;;;;;;;;12.75;10.50;;;;;;;;5059415;28;51196;-57
2022/06/20 01:57:21;;;;;;;;;14.25;9.75;;;;;;;;5060071;28;51149;-57
2022/06/20 02:00:23;;;;;;;;;11.00;9.00;;;;;;;;5059985;28;51190;-57
2022/06/20 02:03:11;;;;;;;;;12.00;9.75;;;;;;;;5060043;28;51122;-57
2022/06/20 02:05:58;;;;;;;;;16.50;11.25;;;;;;;;5055473;28;51104;-57
2022/06/20 02:08:47;;;;;;;;;12.25;10.75;;;;;;;;5059526;28;51107;-57
2022/06/20 02:11:38;;;;;;;;;9.75;9.75;;;;;;;;5058885;28;51142;-57
2022/06/20 02:14:25;;;;;;;;;15.50;10.00;;;;;;;;5059772;28;51352;-56
2022/06/20 02:17:12;;;;;;;;;11.25;10.50;;;;;;;;5059418;28;51201;-57
2022/06/20 02:19:59;;;;;;;;;16.50;10.00;;;;;;;;5059192;28;51109;-58
2022/06/20 02:22:46;;;;;;;;;10.00;9.00;;;;;;;;5058559;28;51019;-58
2022/06/20 02:25:44;;;;;;;;;12.00;9.75;;;;;;;;5059113;28;51185;-57
2022/06/20 02:28:38;;;;;;;;;15.75;11.75;;;;;;;;5059753;28;51157;-57
2022/06/20 02:31:29;;;;;;;;;12.00;10.75;;;;;;;;5055348;28;51123;-57
2022/06/20 02:34:13;;;;;;;;;10.00;10.00;;;;;;;;5046041;28;51345;-57
2022/06/20 02:37:09;;;;;;;;;14.00;13.75;;;;;;;;5052889;28;51137;-57
2022/06/20 02:39:57;;;;;;;;;9.25;9.25;;;;;;;;5059331;28;51100;-57
2022/06/20 02:43:03;;;;;;;;;10.50;7.75;;;;;;;;5059329;28;51508;-58
2022/06/20 02:45:49;;;;;;;;;10.75;7.25;;;;;;;;5059217;28;51128;-56
2022/06/20 02:48:36;;;;;;;;;8.75;8.75;;;;;;;;5059200;28;51487;-58
2022/06/20 02:51:23;;;;;;;;;16.75;10.00;;;;;;;;5058746;28;51082;-58
2022/06/20 02:54:10;;;;;;;;;14.00;11.50;;;;;;;;5059320;28;51055;-58
2022/06/20 02:57:01;;;;;;;;;10.50;9.25;;;;;;;;5055167;28;51298;-57
2022/06/20 02:59:52;;;;;;;;;13.50;9.25;;;;;;;;5057328;28;51984;-58
2022/06/20 03:02:38;;;;;;;;;12.00;11.00;;;;;;;;5058912;28;51086;-57
2022/06/20 03:05:24;;;;;;;;;12.75;11.50;;;;;;;;5058656;28;51073;-58
2022/06/20 03:08:20;;;;;;;;;13.50;9.25;;;;;;;;5058919;28;51392;-57
2022/06/20 03:11:05;;;;;;;;;9.50;9.50;;;;;;;;5059141;28;51098;-57
2022/06/20 03:13:59;;;;;;;;;12.00;11.50;;;;;;;;5058738;28;51609;-58
2022/06/20 03:16:45;;;;;;;;;9.75;9.00;;;;;;;;5058853;28;51145;-57
2022/06/20 03:19:56;;;;;;;;;13.00;10.50;;;;;;;;5049190;28;51217;-58
2022/06/20 03:22:44;;;;;;;;;15.00;12.25;;;;;;;;5054972;28;51178;-57
2022/06/20 03:25:28;;;;;;;;;11.00;9.75;;;;;;;;5058526;28;51345;-57
2022/06/20 03:28:14;;;;;;;;;14.50;12.75;;;;;;;;5058529;28;51121;-58
2022/06/20 03:31:00;;;;;;;;;12.50;11.25;;;;;;;;5059042;28;51160;-57
2022/06/20 03:33:50;;;;;;;;;14.75;9.75;;;;;;;;5050856;28;51189;-57
2022/06/20 03:36:35;;;;;;;;;14.75;11.75;;;;;;;;5058750;28;51247;-58
2022/06/20 03:39:19;;;;;;;;;13.75;10.75;;;;;;;;5060169;28;51516;-57
2022/06/20 03:42:04;;;;;;;;;14.25;13.25;;;;;;;;5059611;28;51182;-57
2022/06/20 03:44:52;;;;;;;;;13.25;11.50;;;;;;;;5062824;28;51039;-59
2022/06/20 03:47:43;;;;;;;;;15.75;10.00;;;;;;;;5062448;28;51199;-57
2022/06/20 03:50:33;;;;;;;;;17.00;9.75;;;;;;;;5062227;28;51531;-58
2022/06/20 03:53:23;;;;;;;;;17.75;10.75;;;;;;;;5058843;28;51084;-57
2022/06/20 03:56:30;;;;;;;;;11.75;10.50;;;;;;;;5065327;27;51054;-58
2022/06/20 03:59:19;;;;;;;;;12.00;10.25;;;;;;;;5061803;28;51106;-57
2022/06/20 04:02:09;;;;;;;;;10.50;10.00;;;;;;;;5061938;28;51262;-57
2022/06/20 04:04:53;;;;;;;;;10.25;10.25;;;;;;;;5061969;28;51403;-58
2022/06/20 04:07:56;;;;;;;;;12.50;9.75;;;;;;;;5061496;28;51048;-57
2022/06/20 04:10:58;;;;;;;;;13.50;11.25;;;;;;;;5046351;28;51534;-58
2022/06/20 04:13:58;;;;;;;;;13.75;11.00;;;;;;;;5062046;28;51134;-58
2022/06/20 04:18:27;;;;;;;;;13.25;10.00;;;;;;;;5061730;28;51426;-57
2022/06/20 04:23:57;;;;;;;;;14.50;10.50;;;;;;;;5061710;28;51130;-58
2022/06/20 04:27:00;;;;;;;;;14.00;11.75;;;;;;;;5053053;28;51170;-58
2022/06/20 04:29:50;;;;;;;;;15.25;12.00;;;;;;;;5055121;28;51107;-56
2022/06/20 04:32:57;;;;;;;;;14.00;11.50;;;;;;;;5038989;28;51428;-57
2022/06/20 04:36:02;;;;;;;;;13.75;10.00;;;;;;;;5066843;27;51170;-58
2022/06/20 04:38:58;;;;;;;;;17.00;13.75;;;;;;;;5064266;27;51118;-57
2022/06/20 04:42:17;;;;;;;;;14.25;11.00;;;;;;;;5061337;28;51180;-57
2022/06/20 04:45:10;;;;;;;;;10.75;9.50;;;;;;;;5060129;28;51490;-58
2022/06/20 04:47:54;;;;;;;;;13.00;10.00;;;;;;;;5058036;28;51110;-58
2022/06/20 04:51:00;;;;;;;;;12.75;11.75;;;;;;;;5059862;28;51169;-57
2022/06/20 04:54:05;;;;;;;;;12.50;12.25;;;;;;;;5060341;28;51526;-57
2022/06/20 04:57:10;;;;;;;;;16.75;12.00;;;;;;;;5059825;28;51171;-58
2022/06/20 05:00:02;;;;;;;;;11.50;10.00;;;;;;;;5060623;28;51488;-59
2022/06/20 05:02:47;;;;;;;;;18.50;15.25;;;;;;;;5042496;28;51235;-58
2022/06/20 05:05:36;;;;;;;;;16.50;13.25;;;;;;;;5057264;28;51123;-57
2022/06/20 05:08:42;;;;;;;;;21.50;16.00;;;;;;;;5059076;28;51173;-58
2022/06/20 05:11:35;;;;;;;;;14.25;12.00;;;;;;;;5058522;28;51468;-57
2022/06/20 05:14:47;;;;;;;;;20.00;14.50;;;;;;;;5042735;28;51152;-58
2022/06/20 05:17:34;;;;;;;;;14.25;13.00;;;;;;;;5058498;28;51127;-57
2022/06/20 05:20:35;;;;;;;;;17.75;13.25;;;;;;;;5058871;28;51119;-56
2022/06/20 05:23:37;;;;;;;;;14.00;12.25;;;;;;;;5058647;28;51198;-57
2022/06/20 05:26:23;;;;;;;;;18.50;14.00;;;;;;;;5060388;28;51406;-58
2022/06/20 05:29:31;;;;;;;;;17.00;14.50;;;;;;;;5060061;28;51270;-57
2022/06/20 05:32:22;;;;;;;;;17.75;15.75;;;;;;;;5060183;28;51355;-58
2022/06/20 05:35:24;;;;;;;;;16.50;12.25;;;;;;;;5057765;27;51125;-58
2022/06/20 05:38:33;;;;;;;;;17.00;12.75;;;;;;;;5056005;28;51434;-57
2022/06/20 05:41:30;;;;;;;;;14.00;11.75;;;;;;;;5057881;28;51214;-56
2022/06/20 05:44:19;;;;;;;;;17.75;14.00;;;;;;;;5060095;28;51059;-57
2022/06/20 05:47:15;;;;;;;;;24.00;17.25;;;;;;;;5059869;28;51577;-57
2022/06/20 05:50:06;;;;;;;;;22.00;18.75;;;;;;;;5060092;28;50993;-57
2022/06/20 05:52:54;;;;;;;;;17.25;14.00;;;;;;;;5058995;28;51325;-56
2022/06/20 05:56:01;;;;;;;;;20.50;15.75;;;;;;;;5058883;28;51149;-56
2022/06/20 05:58:46;;;;;;;;;20.00;18.00;;;;;;;;5059262;28;51446;-58
2022/06/20 06:01:43;;;;;;;;;14.00;11.75;;;;;;;;5059297;28;51153;-58
2022/06/20 06:04:30;;;;;;;;;14.50;10.75;;;;;;;;5059422;28;51498;-58
2022/06/20 06:07:20;;;;;;;;;18.50;12.25;;;;;;;;5059504;28;51449;-57
2022/06/20 06:10:36;;;;;;;;;14.25;12.00;;;;;;;;5044314;28;51094;-58
2022/06/20 06:13:30;;;;;;;;;14.00;12.75;;;;;;;;5054980;28;51184;-57
2022/06/20 06:19:45;;;;;;;;;18.25;17.00;;;;;;;;5056152;28;51273;-57
2022/06/20 06:22:34;;;;;;;;;21.00;17.00;;;;;;;;5058505;28;51091;-57
2022/06/20 06:25:23;;;;;;;;;34.25;28.25;;;;;;;;5058106;28;51079;-58
2022/06/20 06:28:12;;;;;;;;;53.25;37.75;;;;;;;;5057113;28;51127;-57
2022/06/20 06:31:06;;;;;;;;;18.25;16.75;;;;;;;;5057552;28;51474;-57
2022/06/20 06:34:02;;;;;;;;;16.75;12.75;;;;;;;;5054334;28;51159;-58
2022/06/20 06:37:10;;;;;;;;;13.50;11.50;;;;;;;;5056467;28;51047;-57
2022/06/20 06:40:16;;;;;;;;;9.75;8.75;;;;;;;;5058007;28;51356;-59
2022/06/20 06:43:03;;;;;;;;;11.75;10.00;;;;;;;;5058914;28;51095;-58
2022/06/20 06:45:50;;;;;;;;;13.25;13.25;;;;;;;;5057106;28;51139;-58
2022/06/20 06:48:40;;;;;;;;;13.25;13.25;;;;;;;;5057751;28;51078;-58
2022/06/20 06:51:33;;;;;;;;;17.75;15.75;;;;;;;;5056609;28;51135;-57
2022/06/20 06:54:20;;;;;;;;;17.25;14.50;;;;;;;;5058719;28;51135;-58
2022/06/20 06:57:10;;;;;;;;;18.25;17.25;;;;;;;;5043748;28;51141;-58
2022/06/20 07:00:07;;;;;;;;;18.00;13.75;;;;;;;;5058945;28;51491;-58
2022/06/20 07:03:16;;;;;;;;;17.75;11.50;;;;;;;;5059435;28;51136;-57
2022/06/20 07:06:04;;;;;;;;;17.00;14.50;;;;;;;;5058632;28;51052;-57
2022/06/20 07:09:13;;;;;;;;;12.00;11.75;;;;;;;;5059012;28;51412;-57
2022/06/20 07:12:16;;;;;;;;;17.25;13.00;;;;;;;;5062739;28;51171;-58
2022/06/20 07:15:05;;;;;;;;;12.50;11.25;;;;;;;;5063272;28;51074;-58
2022/06/20 07:17:49;;;;;;;;;11.25;11.25;;;;;;;;5062379;28;51123;-58
2022/06/20 07:20:40;;;;;;;;;9.50;8.50;;;;;;;;5058615;28;51125;-58
2022/06/20 07:23:26;;;;;;;;;12.50;8.75;;;;;;;;5062811;28;51211;-57
2022/06/20 07:26:15;;;;;;;;;8.75;8.75;;;;;;;;5057565;28;51199;-58
2022/06/20 07:29:16;;;;;;;;;9.25;9.25;;;;;;;;5063998;28;51096;-57
2022/06/20 07:32:03;;;;;;;;;11.25;8.25;;;;;;;;5058312;28;51094;-58
2022/06/20 07:35:11;;;;;;;;;9.75;9.75;;;;;;;;5061823;28;51102;-58
2022/06/20 07:38:11;;;;;;;;;13.50;11.25;;;;;;;;5061855;28;51092;-58
2022/06/20 07:41:10;;;;;;;;;9.50;8.50;;;;;;;;5062214;28;51146;-58
2022/06/20 07:44:28;;;;;;;;;14.50;10.75;;;;;;;;5062458;28;51522;-58
2022/06/20 07:47:30;;;;;;;;;11.50;10.00;;;;;;;;4947035;28;51156;-58
2022/06/20 07:50:39;;;;;;;;;7.75;7.75;;;;;;;;5015405;28;51312;-58
2022/06/20 07:53:23;;;;;;;;;8.50;8.00;;;;;;;;5061963;28;51207;-58
2022/06/20 07:56:12;;;;;;;;;10.50;8.00;;;;;;;;5062568;28;51354;-58
2022/06/20 07:59:05;;;;;;;;;10.50;7.00;;;;;;;;5046906;28;51537;-58
2022/06/20 08:01:55;;;;;;;;;6.75;6.25;;;;;;;;5061694;28;51249;-58
2022/06/20 08:04:44;;;;;;;;;6.75;5.00;;;;;;;;5061735;28;51034;-57
2022/06/20 08:07:44;;;;;;;;;7.75;7.75;;;;;;;;5047375;28;51151;-57
2022/06/20 08:10:43;;;;;;;;;8.25;6.25;;;;;;;;5029312;28;51092;-58
2022/06/20 08:13:42;;;;;;;;;7.25;7.00;;;;;;;;5061797;28;51134;-58
2022/06/20 08:16:31;;;;;;;;;9.25;8.00;;;;;;;;5061580;28;51381;-58
2022/06/20 08:19:17;;;;;;;;;8.00;8.00;;;;;;;;5033082;27;51215;-58
2022/06/20 08:22:04;;;;;;;;;9.50;6.75;;;;;;;;5074413;27;51132;-58
2022/06/20 08:24:58;;;;;;;;;7.75;6.25;;;;;;;;5079490;27;51519;-57
2022/06/20 08:28:09;;;;;;;;;9.50;8.00;;;;;;;;5081263;27;51056;-58
2022/06/20 08:30:56;;;;;;;;;6.00;6.00;;;;;;;;5082022;27;51038;-57
2022/06/20 08:33:54;;;;;;;;;8.75;7.50;;;;;;;;5081964;27;51127;-58
2022/06/20 08:36:44;;;;;;;;;15.00;11.00;;;;;;;;5081516;27;51352;-58
2022/06/20 08:39:46;;;;;;;;;11.50;10.00;;;;;;;;5081726;27;51191;-57
2022/06/20 08:42:57;;;;;;;;;13.25;10.25;;;;;;;;5081645;27;51080;-57
2022/06/20 08:45:53;;;;;;;;;11.00;8.50;;;;;;;;5081421;27;52029;-58
2022/06/20 08:49:04;;;;;;;;;20.75;19.25;;;;;;;;5081829;27;51064;-59
2022/06/20 08:52:07;;;;;;;;;15.50;11.25;;;;;;;;5052252;27;51667;-58
2022/06/20 08:55:02;;;;;;;;;9.75;8.50;;;;;;;;5081667;27;51274;-59
2022/06/20 08:58:04;;;;;;;;;13.00;10.00;;;;;;;;5081310;27;51149;-58
2022/06/20 09:01:03;;;;;;;;;9.75;8.25;;;;;;;;5081429;27;51064;-57
2022/06/20 09:03:56;;;;;;;;;9.50;9.00;;;;;;;;5080943;27;51040;-58
2022/06/20 09:06:55;;;;;;;;;7.50;6.50;;;;;;;;5081361;27;51064;-58
2022/06/20 09:09:59;;;;;;;;;7.25;6.00;;;;;;;;5081408;27;51216;-59
2022/06/20 09:13:03;;;;;;;;;10.00;8.00;;;;;;;;5080947;27;51146;-59
2022/06/20 09:16:06;;;;;;;;;8.50;7.75;;;;;;;;5081406;27;51103;-58
2022/06/20 09:18:51;;;;;;;;;25.25;20.00;;;;;;;;5080754;27;51369;-58
2022/06/20 09:22:01;;;;;;;;;23.00;22.25;;;;;;;;5080786;27;51196;-58
2022/06/20 09:25:07;;;;;;;;;20.00;16.50;;;;;;;;5080810;27;51082;-58
2022/06/20 09:28:11;;;;;;;;;14.00;12.50;;;;;;;;5081083;27;51146;-57
2022/06/20 09:34:21;;;;;;;;;9.00;8.00;;;;;;;;5080387;27;51182;-58
2022/06/20 09:37:09;;;;;;;;;9.00;8.25;;;;;;;;5077333;27;51229;-58
2022/06/20 09:40:08;;;;;;;;;21.00;15.75;;;;;;;;5075658;27;51122;-57
2022/06/20 09:43:12;;;;;;;;;9.50;8.50;;;;;;;;5080231;27;51283;-57
2022/06/20 09:46:07;;;;;;;;;8.75;8.50;;;;;;;;5079908;27;51533;-57
2022/06/20 09:49:20;;;;;;;;;11.25;9.00;;;;;;;;5080403;27;51097;-57
2022/06/20 09:52:17;;;;;;;;;9.50;9.50;;;;;;;;5080268;27;51181;-58
2022/06/20 09:55:13;;;;;;;;;17.50;14.50;;;;;;;;5080760;27;51126;-56
2022/06/20 09:57:57;;;;;;;;;7.50;7.50;;;;;;;;5079936;27;51359;-57
2022/06/20 10:01:11;;;;;;;;;15.75;11.75;;;;;;;;5080336;27;51161;-57
2022/06/20 10:04:28;;;;;;;;;10.75;8.25;;;;;;;;5080467;27;51090;-57
2022/06/20 10:07:36;;;;;;;;;20.50;17.50;;;;;;;;4993450;28;51117;-57
2022/06/20 10:10:32;;;;;;;;;10.50;10.50;;;;;;;;5041397;27;51194;-57
2022/06/20 10:13:39;;;;;;;;;10.25;9.00;;;;;;;;5079856;27;51503;-56
2022/06/20 10:16:30;;;;;;;;;12.25;8.50;;;;;;;;5080010;27;51091;-57
2022/06/20 10:19:37;;;;;;;;;11.00;7.50;;;;;;;;5079678;27;51087;-57
2022/06/20 10:22:39;;;;;;;;;15.75;11.00;;;;;;;;5039222;28;51084;-57
2022/06/20 10:25:52;;;;;;;;;14.00;10.50;;;;;;;;5048204;28;51203;-58
2022/06/20 10:28:55;;;;;;;;;9.50;8.25;;;;;;;;5049635;28;51135;-57
2022/06/20 10:32:08;;;;;;;;;5.50;5.00;;;;;;;;5039114;28;51418;-57
2022/06/20 10:35:08;;;;;;;;;8.75;6.25;;;;;;;;5039277;28;51207;-58
2022/06/20 10:38:00;;;;;;;;;11.00;8.25;;;;;;;;5039671;28;51116;-57
2022/06/20 10:40:47;;;;;;;;;12.50;11.25;;;;;;;;5039164;28;51722;-57
2022/06/20 10:43:55;;;;;;;;;10.75;8.25;;;;;;;;5039384;28;51080;-57
2022/06/20 10:47:06;;;;;;;;;12.50;11.50;;;;;;;;5027849;28;51157;-57
2022/06/20 10:50:02;;;;;;;;;13.25;10.25;;;;;;;;5033088;28;51192;-57
2022/06/20 10:52:51;;;;;;;;;13.50;11.00;;;;;;;;5043049;28;51061;-58
2022/06/20 10:55:41;;;;;;;;;13.75;10.25;;;;;;;;5043075;28;51410;-57
2022/06/20 10:58:44;;;;;;;;;11.50;9.75;;;;;;;;5043368;28;51390;-57
2022/06/20 11:05:07;;;;;;;;;11.75;10.00;;;;;;;;5063345;28;51113;-56
2022/06/20 11:07:59;;;;;;;;;11.25;9.00;;;;;;;;5062899;28;51582;-58
2022/06/20 11:11:03;;;;;;;;;13.25;8.25;;;;;;;;5046229;28;51042;-56
2022/06/20 11:14:11;;;;;;;;;9.25;9.25;;;;;;;;5062773;28;51166;-58
2022/06/20 11:17:02;;;;;;;;;10.00;8.00;;;;;;;;5043563;28;51136;-57
2022/06/20 11:19:59;;;;;;;;;12.00;7.25;;;;;;;;5060540;27;51246;-57
2022/06/20 11:22:49;;;;;;;;;12.00;11.75;;;;;;;;5065393;27;51187;-57
2022/06/20 11:26:00;;;;;;;;;12.75;12.25;;;;;;;;5063156;28;51064;-57
2022/06/20 11:29:04;;;;;;;;;9.50;9.50;;;;;;;;5062078;28;51095;-57
2022/06/20 11:31:49;;;;;;;;;8.75;7.00;;;;;;;;5062991;28;51043;-57
2022/06/20 11:34:52;;;;;;;;;10.50;7.75;;;;;;;;5062759;28;51421;-57
2022/06/20 11:37:49;;;;;;;;;10.75;9.25;;;;;;;;5062897;28;51079;-57
2022/06/20 11:41:16;;;;;;;;;11.75;9.25;;;;;;;;5062437;28;51080;-57
2022/06/20 11:44:10;;;;;;;;;8.75;8.75;;;;;;;;5062561;28;51202;-56
2022/06/20 11:47:19;;;;;;;;;12.25;10.00;;;;;;;;5062230;28;51379;-57
2022/06/20 11:50:19;;;;;;;;;15.25;12.00;;;;;;;;5062555;28;51283;-57
2022/06/20 11:53:15;;;;;;;;;6.00;4.25;;;;;;;;5062468;28;51168;-57
2022/06/20 11:56:19;;;;;;;;;10.50;10.25;;;;;;;;5061684;28;50987;-57
2022/06/20 11:59:26;;;;;;;;;9.75;9.75;;;;;;;;5062420;28;50988;-58
2022/06/20 12:02:29;;;;;;;;;10.00;8.50;;;;;;;;5061993;28;51489;-57
2022/06/20 12:05:17;;;;;;;;;11.00;8.00;;;;;;;;5062491;28;51347;-56
2022/06/20 12:08:12;;;;;;;;;9.50;9.25;;;;;;;;5062257;28;51190;-59
2022/06/20 12:11:17;;;;;;;;;11.25;9.25;;;;;;;;5062329;28;51087;-59
2022/06/20 12:14:27;;;;;;;;;12.00;9.00;;;;;;;;4999422;28;51480;-58
2022/06/20 12:17:15;;;;;;;;;8.00;7.25;;;;;;;;5062204;27;51182;-59
2022/06/20 12:23:54;;;;;;;;;9.75;9.00;;;;;;;;5062155;28;51049;-58
2022/06/20 12:26:39;;;;;;;;;11.00;8.75;;;;;;;;5062556;28;51092;-58
2022/06/20 12:29:34;;;;;;;;;12.75;8.00;;;;;;;;5061790;28;51434;-59
2022/06/20 12:32:21;;;;;;;;;7.00;5.25;;;;;;;;5062037;28;51071;-59
2022/06/20 12:35:27;;;;;;;;;7.75;7.50;;;;;;;;5061631;28;51107;-59
2022/06/20 12:38:18;;;;;;;;;10.00;10.00;;;;;;;;5057966;28;51235;-59
2022/06/20 12:41:06;;;;;;;;;12.25;8.25;;;;;;;;5061177;28;51072;-58
2022/06/20 12:43:51;;;;;;;;;7.50;7.50;;;;;;;;5061735;28;51013;-58
2022/06/20 12:46:54;;;;;;;;;9.75;6.25;;;;;;;;5061603;28;51441;-55
2022/06/20 12:50:08;;;;;;;;;11.00;8.00;;;;;;;;5061416;28;51312;-57
2022/06/20 12:53:21;;;;;;;;;7.50;6.75;;;;;;;;5061542;28;51309;-58
2022/06/20 12:56:22;;;;;;;;;9.00;6.25;;;;;;;;5061160;28;51511;-55
2022/06/20 12:59:27;;;;;;;;;9.75;7.00;;;;;;;;5061122;28;51515;-52
2022/06/20 13:02:35;;;;;;;;;9.50;5.75;;;;;;;;5060901;28;51091;-49
2022/06/20 13:05:29;;;;;;;;;8.50;8.00;;;;;;;;5061515;28;51091;-55
2022/06/20 13:08:33;;;;;;;;;9.50;9.25;;;;;;;;5060204;28;51091;-58
2022/06/20 13:11:38;;;;;;;;;8.75;6.00;;;;;;;;5060722;28;51037;-58
2022/06/20 13:14:41;;;;;;;;;7.25;6.25;;;;;;;;5060932;28;51131;-56
2022/06/20 13:17:31;;;;;;;;;6.00;6.00;;;;;;;;5060589;28;51268;-58
2022/06/20 13:20:18;;;;;;;;;9.00;8.00;;;;;;;;5061054;28;51215;-57
2022/06/20 13:26:32;;;;;;;;;12.75;8.00;;;;;;;;5059980;28;51385;-57
2022/06/20 13:29:25;;;;;;;;;7.75;7.00;;;;;;;;5060262;28;51188;-58
2022/06/20 13:32:45;;;;;;;;;10.75;7.75;;;;;;;;5061197;28;51090;-58
2022/06/20 13:35:29;;;;;;;;;8.00;6.25;;;;;;;;4959053;28;51506;-58
2022/06/20 13:38:36;;;;;;;;;10.25;8.50;;;;;;;;5057960;28;51051;-57
2022/06/20 13:41:23;;;;;;;;;9.00;6.50;;;;;;;;5060278;28;51597;-58
2022/06/20 13:44:14;;;;;;;;;8.75;5.75;;;;;;;;5060461;28;51075;-59
2022/06/20 13:47:18;;;;;;;;;9.50;6.50;;;;;;;;5060758;28;51103;-58
2022/06/20 13:50:23;;;;;;;;;10.00;9.00;;;;;;;;5060360;28;51165;-54
2022/06/20 13:53:20;;;;;;;;;9.25;7.75;;;;;;;;5060402;28;51105;-53
2022/06/20 13:56:25;;;;;;;;;9.75;7.00;;;;;;;;5059728;28;51168;-54
2022/06/20 13:59:10;;;;;;;;;11.00;9.50;;;;;;;;5060365;28;51147;-53
2022/06/20 14:02:22;;;;;;;;;10.00;8.00;;;;;;;;5059977;28;51435;-54
2022/06/20 14:05:25;;;;;;;;;10.00;6.25;;;;;;;;5059744;28;51076;-55
2022/06/20 14:08:40;;;;;;;;;8.00;7.00;;;;;;;;5059644;28;51469;-54
2022/06/20 14:11:56;;;;;;;;;14.50;14.25;;;;;;;;5059492;28;51061;-54
2022/06/20 14:14:46;;;;;;;;;10.00;9.25;;;;;;;;5059794;28;51185;-54
2022/06/20 14:17:33;;;;;;;;;8.75;8.75;;;;;;;;5059469;28;51127;-54
2022/06/20 14:20:28;;;;;;;;;9.00;9.00;;;;;;;;5059685;28;51442;-55
2022/06/20 14:23:18;;;;;;;;;6.50;6.50;;;;;;;;5059689;28;51085;-52
2022/06/20 14:33:30;;;;;;;;;6.75;6.50;;;;;;;;5059617;28;51174;-55
2022/06/20 14:36:41;;;;;;;;;9.75;6.00;;;;;;;;5059568;28;51111;-55
2022/06/20 14:39:37;;;;;;;;;8.50;5.50;;;;;;;;5058944;28;51093;-54
2022/06/20 14:42:42;;;;;;;;;5.75;5.50;;;;;;;;5059445;28;51068;-55
2022/06/20 14:45:47;;;;;;;;;5.75;5.75;;;;;;;;5059321;28;51071;-54
2022/06/20 14:48:36;;;;;;;;;7.25;5.25;;;;;;;;5059267;28;51270;-55
2022/06/20 14:51:29;;;;;;;;;8.25;6.00;;;;;;;;5059191;28;51229;-55
2022/06/20 14:54:16;;;;;;;;;6.50;6.50;;;;;;;;5060393;28;51062;-54
2022/06/20 14:57:17;;;;;;;;;4.50;4.00;;;;;;;;5059179;28;51545;-52
2022/06/20 15:00:13;;;;;;;;;9.50;6.75;;;;;;;;5059284;28;51134;-54
2022/06/20 15:03:17;;;;;;;;;8.25;6.00;;;;;;;;5059198;28;51107;-55
2022/06/20 15:06:20;;;;;;;;;8.00;5.50;;;;;;;;5058808;28;51067;-54
2022/06/20 15:09:10;;;;;;;;;7.25;4.50;;;;;;;;5058729;28;51169;-54
2022/06/20 15:12:31;;;;;;;;;6.25;5.50;;;;;;;;5059169;28;51061;-54
2022/06/20 15:15:19;;;;;;;;;7.75;5.00;;;;;;;;5059411;28;51039;-52
2022/06/20 15:18:09;;;;;;;;;8.75;6.00;;;;;;;;5058698;28;51193;-53
2022/06/20 15:21:06;;;;;;;;;7.25;5.00;;;;;;;;5059887;28;50960;-54
2022/06/20 15:24:11;;;;;;;;;7.00;5.00;;;;;;;;5059201;28;50981;-55
2022/06/20 15:26:58;;;;;;;;;8.00;6.00;;;;;;;;5058786;28;51259;-54
2022/06/20 15:29:50;;;;;;;;;10.75;10.00;;;;;;;;5067323;27;51206;-55
2022/06/20 15:32:37;;;;;;;;;10.50;10.00;;;;;;;;5069950;27;51122;-54
2022/06/20 15:38:41;;;;;;;;;7.75;6.00;;;;;;;;5058204;28;52349;-55
2022/06/20 15:41:25;;;;;;;;;8.25;7.00;;;;;;;;5061038;27;51545;-54
2022/06/20 15:44:24;;;;;;;;;9.25;8.25;;;;;;;;5062231;28;51099;-55
2022/06/20 15:47:08;;;;;;;;;9.75;6.00;;;;;;;;5062717;28;50996;-53
2022/06/20 15:50:03;;;;;;;;;6.75;6.75;;;;;;;;5062181;28;51147;-53
2022/06/20 15:52:48;;;;;;;;;7.00;6.00;;;;;;;;5062242;28;51154;-53
2022/06/20 15:55:32;;;;;;;;;6.00;5.75;;;;;;;;5061873;28;51161;-54
2022/06/20 15:58:20;;;;;;;;;8.50;6.25;;;;;;;;5062108;28;51114;-53
2022/06/20 16:01:17;;;;;;;;;6.25;6.00;;;;;;;;5062477;28;51153;-53
2022/06/20 16:04:04;;;;;;;;;5.00;5.00;;;;;;;;5060737;27;51069;-54
2022/06/20 16:07:10;;;;;;;;;9.00;6.00;;;;;;;;5056258;28;51183;-53
2022/06/20 16:10:13;;;;;;;;;12.00;8.25;;;;;;;;5061350;28;51176;-53
2022/06/20 16:12:58;;;;;;;;;9.25;7.75;;;;;;;;5062056;28;51162;-53
2022/06/20 16:15:45;;;;;;;;;7.50;6.75;;;;;;;;5061563;28;51486;-54
2022/06/20 16:18:30;;;;;;;;;10.00;8.25;;;;;;;;5061636;28;51169;-54
2022/06/20 16:21:19;;;;;;;;;6.25;6.00;;;;;;;;5061738;28;51147;-51
2022/06/20 16:24:06;;;;;;;;;8.75;8.25;;;;;;;;5061055;28;51212;-54
2022/06/20 16:26:52;;;;;;;;;6.75;6.75;;;;;;;;5054955;28;51035;-52
2022/06/20 16:29:47;;;;;;;;;10.25;8.25;;;;;;;;5061212;28;51048;-53
2022/06/20 16:32:31;;;;;;;;;12.25;9.25;;;;;;;;5061540;28;51142;-54
2022/06/20 16:35:16;;;;;;;;;8.25;6.00;;;;;;;;5060946;28;51125;-52
2022/06/20 16:38:04;;;;;;;;;8.25;5.75;;;;;;;;5046391;28;51188;-54
2022/06/20 16:41:13;;;;;;;;;5.50;5.50;;;;;;;;5046968;28;51126;-54
2022/06/20 16:44:32;;;;;;;;;10.75;6.75;;;;;;;;5060398;28;51155;-54
2022/06/20 16:47:29;;;;;;;;;9.25;5.00;;;;;;;;5028210;28;51187;-56
2022/06/20 16:50:32;;;;;;;;;10.25;7.00;;;;;;;;5061314;28;51111;-54
2022/06/20 16:53:22;;;;;;;;;5.50;5.50;;;;;;;;5060261;28;51581;-54
2022/06/20 16:56:10;;;;;;;;;7.25;6.50;;;;;;;;5058925;28;51123;-56
2022/06/20 16:59:14;;;;;;;;;5.75;5.75;;;;;;;;5060143;28;51374;-54
2022/06/20 17:02:05;;;;;;;;;7.50;7.50;;;;;;;;5060492;28;51167;-54
2022/06/20 17:05:05;;;;;;;;;7.00;6.25;;;;;;;;5061191;28;51262;-55
2022/06/20 17:08:07;;;;;;;;;5.75;5.75;;;;;;;;5059295;28;51183;-53
2022/06/20 17:10:58;;;;;;;;;6.50;6.00;;;;;;;;5058582;28;51225;-55
2022/06/20 17:13:42;;;;;;;;;9.00;8.50;;;;;;;;5059004;28;51473;-54
2022/06/20 17:16:33;;;;;;;;;9.75;7.25;;;;;;;;5059002;28;51183;-53
2022/06/20 17:19:22;;;;;;;;;8.00;5.50;;;;;;;;5058935;28;51135;-55
2022/06/20 17:22:12;;;;;;;;;6.25;6.25;;;;;;;;5058484;28;51175;-55
2022/06/20 17:25:00;;;;;;;;;9.25;6.50;;;;;;;;5060642;28;51338;-55
2022/06/20 17:27:44;;;;;;;;;5.50;5.50;;;;;;;;5060278;28;51070;-52
2022/06/20 17:30:31;;;;;;;;;7.00;6.00;;;;;;;;5060328;28;51131;-54
2022/06/20 17:33:15;;;;;;;;;10.25;8.25;;;;;;;;5059913;28;51363;-54
2022/06/20 17:36:09;;;;;;;;;7.75;6.75;;;;;;;;5060305;28;51016;-52
2022/06/20 17:39:00;;;;;;;;;7.50;7.50;;;;;;;;5060050;28;51498;-54
2022/06/20 17:41:59;;;;;;;;;11.25;11.25;;;;;;;;5060393;28;51474;-54
2022/06/20 17:44:57;;;;;;;;;13.00;7.75;;;;;;;;5053081;28;51056;-54
2022/06/20 17:47:47;;;;;;;;;7.75;7.00;;;;;;;;5060042;28;51078;-55
2022/06/20 17:51:01;;;;;;;;;8.25;7.25;;;;;;;;5044286;28;51491;-55